Time;durP1;ratioP1;P1;durP2;ratioP2;P2;SDS_P1;SDS_P2;PMS_P1;PMS_P2;Temp;Humidity;BMP_temperature;BMP_pressure;BME280_temperature;BME280_humidity;BME280_pressure;Samples;Min_cycle;Max_cycle;Signal;HPM_P1;HPM_P2
2023/07/23 00:01:17;;;;;;;17.27;10.20;;;;;;;;;;4913528;29;20131;-65
2023/07/23 00:03:43;;;;;;;18.13;9.80;;;;;;;;;;4912729;29;20044;-65
2023/07/23 00:06:09;;;;;;;15.30;9.00;;;;;;;;;;4913715;29;20052;-64
2023/07/23 00:08:35;;;;;;;15.50;8.83;;;;;;;;;;4896514;29;20048;-65
2023/07/23 00:11:01;;;;;;;15.93;7.90;;;;;;;;;;4912229;29;20048;-65
2023/07/23 00:13:27;;;;;;;21.17;11.30;;;;;;;;;;4913246;29;20075;-65
2023/07/23 00:15:53;;;;;;;20.60;11.80;;;;;;;;;;4913579;29;20051;-65
2023/07/23 00:18:19;;;;;;;19.87;10.40;;;;;;;;;;4913099;29;20547;-65
2023/07/23 00:20:45;;;;;;;21.30;10.67;;;;;;;;;;4913029;29;20099;-65
2023/07/23 00:23:11;;;;;;;24.73;10.97;;;;;;;;;;4912659;29;20507;-65
2023/07/23 00:25:37;;;;;;;17.07;9.43;;;;;;;;;;4912903;29;20084;-65
2023/07/23 00:28:03;;;;;;;16.00;9.43;;;;;;;;;;4912477;29;20056;-65
2023/07/23 00:30:29;;;;;;;20.40;11.20;;;;;;;;;;4913094;29;20098;-65
2023/07/23 00:32:55;;;;;;;19.93;10.87;;;;;;;;;;4912934;29;20134;-65
2023/07/23 00:35:23;;;;;;;16.77;10.07;;;;;;;;;;4912675;29;20055;-64
2023/07/23 00:37:49;;;;;;;21.77;10.87;;;;;;;;;;4912157;29;20529;-65
2023/07/23 00:40:15;;;;;;;22.47;11.87;;;;;;;;;;4913025;29;20051;-65
2023/07/23 00:42:41;;;;;;;22.67;10.93;;;;;;;;;;4912487;29;20079;-65
2023/07/23 00:45:07;;;;;;;22.23;10.77;;;;;;;;;;4912827;29;20040;-65
2023/07/23 00:47:33;;;;;;;19.60;12.03;;;;;;;;;;4912944;29;20139;-64
2023/07/23 00:49:59;;;;;;;24.87;12.43;;;;;;;;;;4912755;29;20108;-65
2023/07/23 00:52:25;;;;;;;21.63;11.80;;;;;;;;;;4912286;29;20052;-65
2023/07/23 00:54:51;;;;;;;27.00;12.80;;;;;;;;;;4911506;29;20059;-65
2023/07/23 00:57:17;;;;;;;34.77;15.63;;;;;;;;;;4910189;29;20052;-65
2023/07/23 00:59:43;;;;;;;27.60;13.53;;;;;;;;;;4911231;29;20478;-65
2023/07/23 01:02:09;;;;;;;23.40;12.47;;;;;;;;;;4912192;29;20048;-65
2023/07/23 01:04:36;;;;;;;27.33;14.50;;;;;;;;;;4912425;29;20044;-65
2023/07/23 01:07:04;;;;;;;27.63;13.97;;;;;;;;;;4912638;29;20051;-64
2023/07/23 01:09:31;;;;;;;31.30;15.07;;;;;;;;;;4912647;29;20063;-65
2023/07/23 01:11:58;;;;;;;34.73;15.93;;;;;;;;;;4912540;29;20082;-65
2023/07/23 01:14:24;;;;;;;41.27;17.17;;;;;;;;;;4911963;29;20093;-64
2023/07/23 01:16:50;;;;;;;34.87;14.80;;;;;;;;;;4912296;29;20048;-65
2023/07/23 01:19:16;;;;;;;40.90;17.33;;;;;;;;;;4912508;29;20130;-65
2023/07/23 01:21:42;;;;;;;40.07;16.80;;;;;;;;;;4912413;29;20092;-64
2023/07/23 01:24:08;;;;;;;29.27;14.40;;;;;;;;;;4912087;29;20040;-65
2023/07/23 01:26:34;;;;;;;37.80;16.47;;;;;;;;;;4893716;29;20414;-64
2023/07/23 01:29:00;;;;;;;28.50;13.73;;;;;;;;;;4910481;29;20101;-65
2023/07/23 01:31:26;;;;;;;30.17;15.00;;;;;;;;;;4910871;29;20517;-64
2023/07/23 01:33:52;;;;;;;31.73;15.03;;;;;;;;;;4911948;29;20102;-65
2023/07/23 01:36:19;;;;;;;39.77;17.20;;;;;;;;;;4912331;29;20410;-65
2023/07/23 01:38:45;;;;;;;29.30;14.60;;;;;;;;;;4910348;29;20413;-64
2023/07/23 01:41:11;;;;;;;38.50;16.30;;;;;;;;;;4911937;29;20045;-65
2023/07/23 01:43:38;;;;;;;30.67;15.50;;;;;;;;;;4912265;29;20040;-64
2023/07/23 01:46:04;;;;;;;41.43;17.20;;;;;;;;;;4912260;29;20505;-65
2023/07/23 01:48:29;;;;;;;48.90;17.30;;;;;;;;;;4911996;29;20044;-65
2023/07/23 01:50:55;;;;;;;35.07;15.57;;;;;;;;;;4911692;29;20371;-64
2023/07/23 01:53:22;;;;;;;43.23;17.43;;;;;;;;;;4911547;29;20054;-64
2023/07/23 01:55:48;;;;;;;35.97;15.13;;;;;;;;;;4911773;29;20418;-65
2023/07/23 01:58:14;;;;;;;45.37;18.30;;;;;;;;;;4911520;29;20510;-65
2023/07/23 02:00:40;;;;;;;33.10;15.47;;;;;;;;;;4911771;29;20075;-63
2023/07/23 02:03:06;;;;;;;40.47;17.93;;;;;;;;;;4911424;29;20063;-63
2023/07/23 02:05:32;;;;;;;27.03;14.40;;;;;;;;;;4911934;29;20104;-62
2023/07/23 02:07:58;;;;;;;37.83;17.53;;;;;;;;;;4910778;29;20048;-63
2023/07/23 02:10:24;;;;;;;47.10;18.60;;;;;;;;;;4911934;29;20554;-63
2023/07/23 02:12:50;;;;;;;29.57;15.10;;;;;;;;;;4912189;29;20115;-63
2023/07/23 02:15:17;;;;;;;32.93;16.60;;;;;;;;;;4912085;29;20096;-63
2023/07/23 02:17:42;;;;;;;27.20;14.10;;;;;;;;;;4911399;29;20352;-63
2023/07/23 02:20:09;;;;;;;43.03;17.27;;;;;;;;;;4911905;29;20452;-63
2023/07/23 02:22:35;;;;;;;41.90;17.83;;;;;;;;;;4912025;29;20056;-63
2023/07/23 02:25:01;;;;;;;31.63;16.70;;;;;;;;;;4911845;29;20526;-63
2023/07/23 02:27:27;;;;;;;33.93;15.93;;;;;;;;;;4914581;29;20186;-63
2023/07/23 02:29:53;;;;;;;36.27;16.33;;;;;;;;;;4915324;29;20076;-63
2023/07/23 02:32:19;;;;;;;32.53;16.00;;;;;;;;;;4915326;29;20056;-63
2023/07/23 02:34:46;;;;;;;30.63;15.47;;;;;;;;;;4914774;29;20606;-62
2023/07/23 02:37:12;;;;;;;37.37;16.97;;;;;;;;;;4915228;29;20056;-63
2023/07/23 02:39:38;;;;;;;39.70;18.03;;;;;;;;;;4915068;29;20419;-63
2023/07/23 02:42:04;;;;;;;38.77;17.27;;;;;;;;;;4914392;29;20055;-63
2023/07/23 02:44:30;;;;;;;45.67;18.67;;;;;;;;;;4914974;29;20048;-63
2023/07/23 02:46:56;;;;;;;33.37;16.00;;;;;;;;;;4915042;29;20047;-63
2023/07/23 02:49:22;;;;;;;42.70;17.47;;;;;;;;;;4915050;29;20040;-63
2023/07/23 02:51:47;;;;;;;38.80;18.23;;;;;;;;;;4914408;29;20048;-63
2023/07/23 02:54:13;;;;;;;34.63;18.27;;;;;;;;;;4897925;29;20048;-63
2023/07/23 02:56:39;;;;;;;32.20;15.20;;;;;;;;;;4913738;29;20406;-63
2023/07/23 02:59:05;;;;;;;27.60;15.20;;;;;;;;;;4913829;29;20044;-62
2023/07/23 03:01:31;;;;;;;27.50;14.73;;;;;;;;;;4914942;29;20048;-63
2023/07/23 03:03:57;;;;;;;33.33;16.13;;;;;;;;;;4914398;29;20044;-63
2023/07/23 03:06:23;;;;;;;36.03;17.70;;;;;;;;;;4915093;29;20047;-63
2023/07/23 03:08:49;;;;;;;40.33;18.27;;;;;;;;;;4914467;29;20055;-63
2023/07/23 03:11:15;;;;;;;32.93;17.13;;;;;;;;;;4914757;29;20511;-63
2023/07/23 03:13:41;;;;;;;27.83;16.63;;;;;;;;;;4914328;29;20044;-63
2023/07/23 03:16:07;;;;;;;28.97;16.10;;;;;;;;;;4895970;29;20131;-63
2023/07/23 03:18:33;;;;;;;35.87;18.83;;;;;;;;;;4912673;29;20044;-62
2023/07/23 03:20:59;;;;;;;36.33;16.80;;;;;;;;;;4893099;29;20135;-63
2023/07/23 03:23:26;;;;;;;29.07;16.20;;;;;;;;;;4895422;29;20053;-63
2023/07/23 03:25:52;;;;;;;46.40;22.90;;;;;;;;;;4894891;29;20503;-63
2023/07/23 03:28:18;;;;;;;39.13;19.07;;;;;;;;;;4895200;29;20048;-63
2023/07/23 03:30:44;;;;;;;42.63;21.40;;;;;;;;;;4893480;29;20628;-63
2023/07/23 03:33:10;;;;;;;28.60;16.67;;;;;;;;;;4895591;29;20049;-63
2023/07/23 03:35:36;;;;;;;36.93;19.17;;;;;;;;;;4895238;29;20055;-62
2023/07/23 03:38:02;;;;;;;35.50;17.67;;;;;;;;;;4894928;29;20123;-63
2023/07/23 03:40:27;;;;;;;35.50;18.00;;;;;;;;;;4895047;29;20057;-62
2023/07/23 03:42:53;;;;;;;39.93;20.87;;;;;;;;;;4895547;29;20690;-63
2023/07/23 03:45:19;;;;;;;34.50;17.63;;;;;;;;;;4895234;29;20063;-63
2023/07/23 03:47:45;;;;;;;41.30;19.87;;;;;;;;;;4894824;29;20051;-63
2023/07/23 03:50:11;;;;;;;35.47;17.83;;;;;;;;;;4895287;29;20044;-63
2023/07/23 03:52:37;;;;;;;50.30;23.30;;;;;;;;;;4893533;29;20123;-63
2023/07/23 03:55:03;;;;;;;43.00;21.57;;;;;;;;;;4895124;29;20052;-63
2023/07/23 03:57:29;;;;;;;28.93;16.77;;;;;;;;;;4894233;29;20067;-63
2023/07/23 03:59:55;;;;;;;34.73;18.70;;;;;;;;;;4894979;29;20519;-63
2023/07/23 04:02:21;;;;;;;36.23;20.10;;;;;;;;;;4894705;29;20051;-63
2023/07/23 04:04:47;;;;;;;44.03;22.37;;;;;;;;;;4894151;29;20055;-62
2023/07/23 04:07:13;;;;;;;32.87;17.97;;;;;;;;;;4894814;29;20440;-63
2023/07/23 04:09:39;;;;;;;33.33;19.40;;;;;;;;;;4894199;29;20040;-63
2023/07/23 04:12:05;;;;;;;30.30;17.83;;;;;;;;;;4894255;29;20057;-63
2023/07/23 04:14:34;;;;;;;36.10;20.27;;;;;;;;;;4894456;29;20052;-63
2023/07/23 04:17:00;;;;;;;36.80;20.10;;;;;;;;;;4894354;29;20136;-63
2023/07/23 04:19:26;;;;;;;32.87;19.53;;;;;;;;;;4896904;29;20455;-63
2023/07/23 04:21:52;;;;;;;30.80;19.50;;;;;;;;;;4912826;29;20051;-63
2023/07/23 04:24:18;;;;;;;36.23;17.13;;;;;;;;;;4912921;29;20079;-63
2023/07/23 04:26:44;;;;;;;41.27;21.07;;;;;;;;;;4912122;29;20075;-63
2023/07/23 04:29:10;;;;;;;42.87;22.63;;;;;;;;;;4913127;29;20056;-63
2023/07/23 04:31:37;;;;;;;30.83;19.13;;;;;;;;;;4912407;29;20059;-63
2023/07/23 04:34:03;;;;;;;45.70;20.77;;;;;;;;;;4912687;29;20102;-63
2023/07/23 04:36:29;;;;;;;34.57;19.47;;;;;;;;;;4912561;29;20044;-62
2023/07/23 04:38:55;;;;;;;37.63;21.70;;;;;;;;;;4912405;29;20047;-63
2023/07/23 04:41:20;;;;;;;49.97;24.27;;;;;;;;;;4913059;29;20061;-63
2023/07/23 04:43:46;;;;;;;35.83;20.30;;;;;;;;;;4912116;29;20499;-62
2023/07/23 04:46:12;;;;;;;39.63;21.50;;;;;;;;;;4912288;29;20048;-63
2023/07/23 04:48:39;;;;;;;36.73;20.77;;;;;;;;;;4912221;29;20463;-63
2023/07/23 04:51:06;;;;;;;48.37;25.27;;;;;;;;;;4911912;29;20060;-63
2023/07/23 04:53:32;;;;;;;53.80;26.40;;;;;;;;;;4912735;29;20409;-63
2023/07/23 04:55:59;;;;;;;30.77;18.87;;;;;;;;;;4911464;29;20581;-63
2023/07/23 04:58:25;;;;;;;42.10;23.63;;;;;;;;;;4912279;29;20134;-63
2023/07/23 05:00:51;;;;;;;33.17;19.03;;;;;;;;;;4911899;29;20419;-62
2023/07/23 05:03:18;;;;;;;43.67;22.60;;;;;;;;;;4912730;29;20102;-63
2023/07/23 05:05:46;;;;;;;29.13;18.73;;;;;;;;;;4911883;29;20158;-62
2023/07/23 05:08:12;;;;;;;36.73;21.60;;;;;;;;;;4910066;29;20511;-63
2023/07/23 05:10:39;;;;;;;33.23;19.87;;;;;;;;;;4910998;29;20095;-63
2023/07/23 05:13:06;;;;;;;40.33;21.80;;;;;;;;;;4912012;29;20143;-63
2023/07/23 05:15:32;;;;;;;34.07;20.00;;;;;;;;;;4912244;29;20060;-63
2023/07/23 05:17:58;;;;;;;35.47;21.13;;;;;;;;;;4912096;29;20044;-63
2023/07/23 05:20:24;;;;;;;39.17;19.87;;;;;;;;;;4911377;29;20628;-63
2023/07/23 05:22:50;;;;;;;32.77;19.27;;;;;;;;;;4912140;29;20048;-63
2023/07/23 05:25:16;;;;;;;33.07;20.07;;;;;;;;;;4911892;29;20135;-63
2023/07/23 05:27:42;;;;;;;32.40;19.07;;;;;;;;;;4910381;29;20123;-63
2023/07/23 05:30:08;;;;;;;38.67;21.07;;;;;;;;;;4911072;29;20040;-63
2023/07/23 05:32:34;;;;;;;31.27;18.10;;;;;;;;;;4910866;29;20048;-65
2023/07/23 05:35:00;;;;;;;28.47;19.30;;;;;;;;;;4912125;29;20521;-65
2023/07/23 05:37:26;;;;;;;34.37;21.00;;;;;;;;;;4911928;29;20084;-65
2023/07/23 05:39:53;;;;;;;33.70;20.03;;;;;;;;;;4912185;29;20161;-65
2023/07/23 05:42:19;;;;;;;29.10;18.63;;;;;;;;;;4911732;29;20052;-65
2023/07/23 05:44:45;;;;;;;21.57;16.03;;;;;;;;;;4910793;29;20060;-65
2023/07/23 05:47:11;;;;;;;30.10;18.27;;;;;;;;;;4895235;29;20153;-65
2023/07/23 05:49:37;;;;;;;33.13;19.83;;;;;;;;;;4895250;29;20473;-65
2023/07/23 05:52:03;;;;;;;28.30;17.40;;;;;;;;;;4911705;29;20052;-66
2023/07/23 05:54:29;;;;;;;35.13;18.17;;;;;;;;;;4911573;29;20087;-65
2023/07/23 05:56:55;;;;;;;29.87;18.07;;;;;;;;;;4910151;29;20075;-65
2023/07/23 05:59:21;;;;;;;25.77;15.57;;;;;;;;;;4911461;29;20410;-65
2023/07/23 06:01:47;;;;;;;27.10;17.87;;;;;;;;;;4914022;29;20477;-65
2023/07/23 06:04:14;;;;;;;23.43;16.90;;;;;;;;;;4915564;29;20075;-64
2023/07/23 06:06:40;;;;;;;21.43;13.50;;;;;;;;;;4915767;29;20052;-64
2023/07/23 06:09:06;;;;;;;24.77;15.87;;;;;;;;;;4914719;29;20513;-64
2023/07/23 06:11:32;;;;;;;17.73;13.37;;;;;;;;;;4915710;29;20052;-65
2023/07/23 06:13:58;;;;;;;21.23;14.10;;;;;;;;;;4915495;29;20596;-65
2023/07/23 06:16:24;;;;;;;25.37;14.57;;;;;;;;;;4914935;29;20075;-64
2023/07/23 06:18:50;;;;;;;25.50;15.20;;;;;;;;;;4915239;29;20052;-64
2023/07/23 06:21:16;;;;;;;23.27;15.60;;;;;;;;;;4915058;29;20048;-64
2023/07/23 06:23:42;;;;;;;18.27;11.63;;;;;;;;;;4914934;29;20050;-64
2023/07/23 06:26:08;;;;;;;23.83;14.23;;;;;;;;;;4915281;29;20040;-64
2023/07/23 06:28:34;;;;;;;18.00;12.03;;;;;;;;;;4915076;29;20048;-64
2023/07/23 06:31:00;;;;;;;18.67;12.67;;;;;;;;;;4915092;29;20055;-65
2023/07/23 06:33:27;;;;;;;21.73;13.23;;;;;;;;;;4913714;29;20577;-64
2023/07/23 06:35:53;;;;;;;20.23;12.93;;;;;;;;;;4915075;29;20116;-64
2023/07/23 06:38:19;;;;;;;26.30;14.67;;;;;;;;;;4913562;29;20044;-64
2023/07/23 06:40:46;;;;;;;24.57;13.97;;;;;;;;;;4913787;29;20530;-64
2023/07/23 06:43:12;;;;;;;22.07;12.60;;;;;;;;;;4914994;29;20063;-65
2023/07/23 06:45:38;;;;;;;21.13;12.83;;;;;;;;;;4914737;29;20067;-65
2023/07/23 06:48:04;;;;;;;23.87;12.50;;;;;;;;;;4914804;29;20525;-65
2023/07/23 06:50:31;;;;;;;18.37;11.47;;;;;;;;;;4915108;29;20135;-64
2023/07/23 06:52:57;;;;;;;26.03;14.07;;;;;;;;;;4897603;29;20503;-64
2023/07/23 06:55:23;;;;;;;21.40;11.40;;;;;;;;;;4914845;29;20487;-64
2023/07/23 06:57:49;;;;;;;21.93;12.40;;;;;;;;;;4914687;29;20096;-65
2023/07/23 07:00:15;;;;;;;20.50;12.13;;;;;;;;;;4915050;29;20047;-65
2023/07/23 07:02:42;;;;;;;18.00;11.57;;;;;;;;;;4913558;29;20056;-65
2023/07/23 07:05:08;;;;;;;17.63;12.10;;;;;;;;;;4913992;29;20044;-64
2023/07/23 07:07:35;;;;;;;21.27;11.47;;;;;;;;;;4915015;29;20052;-65
2023/07/23 07:10:01;;;;;;;20.93;12.93;;;;;;;;;;4914753;29;20075;-64
2023/07/23 07:12:28;;;;;;;18.63;11.67;;;;;;;;;;4913762;29;20044;-65
2023/07/23 07:14:54;;;;;;;18.63;11.07;;;;;;;;;;4912094;29;20080;-65
2023/07/23 07:17:21;;;;;;;27.50;14.10;;;;;;;;;;4911903;29;20044;-65
2023/07/23 07:19:47;;;;;;;20.90;12.10;;;;;;;;;;4913130;29;20506;-64
2023/07/23 07:22:13;;;;;;;25.07;13.30;;;;;;;;;;4921824;29;20047;-65
2023/07/23 07:24:39;;;;;;;26.03;12.40;;;;;;;;;;4929089;29;20048;-64
2023/07/23 07:27:11;;;;;;;19.43;11.90;;;;;;;;;;4913905;29;20052;-64
2023/07/23 07:29:41;;;;;;;21.53;12.77;;;;;;;;;;4913227;29;20507;-64
2023/07/23 07:32:07;;;;;;;26.23;12.73;;;;;;;;;;4924857;29;20044;-64
2023/07/23 07:34:33;;;;;;;23.03;13.30;;;;;;;;;;4932709;29;20052;-64
2023/07/23 07:36:59;;;;;;;23.80;12.97;;;;;;;;;;4923246;29;20052;-64
2023/07/23 07:39:26;;;;;;;27.60;13.93;;;;;;;;;;4912535;29;20044;-64
2023/07/23 07:41:53;;;;;;;20.20;11.13;;;;;;;;;;4912748;29;20052;-64
2023/07/23 07:44:19;;;;;;;19.07;11.00;;;;;;;;;;4914357;29;20052;-64
2023/07/23 07:46:45;;;;;;;21.03;11.97;;;;;;;;;;4932101;29;20047;-65
2023/07/23 07:49:11;;;;;;;22.20;11.60;;;;;;;;;;4929519;29;20392;-64
2023/07/23 07:51:39;;;;;;;26.20;13.70;;;;;;;;;;4895864;29;20048;-64
2023/07/23 07:54:06;;;;;;;18.70;11.80;;;;;;;;;;4913001;29;20540;-65
2023/07/23 07:56:32;;;;;;;23.97;11.83;;;;;;;;;;4910930;29;20047;-64
2023/07/23 07:58:58;;;;;;;25.07;13.00;;;;;;;;;;4916769;29;20058;-64
2023/07/23 08:01:24;;;;;;;35.20;14.77;;;;;;;;;;4931642;29;20051;-64
2023/07/23 08:03:50;;;;;;;25.00;12.70;;;;;;;;;;4928236;29;20506;-64
2023/07/23 08:06:16;;;;;;;27.27;11.90;;;;;;;;;;4895335;29;20044;-64
2023/07/23 08:08:43;;;;;;;25.60;13.47;;;;;;;;;;4912709;29;20048;-65
2023/07/23 08:11:10;;;;;;;21.67;11.93;;;;;;;;;;4912971;29;20398;-64
2023/07/23 08:13:37;;;;;;;19.13;11.00;;;;;;;;;;4912662;29;20095;-64
2023/07/23 08:16:04;;;;;;;18.53;11.00;;;;;;;;;;4912177;29;20079;-64
2023/07/23 08:18:30;;;;;;;17.40;10.20;;;;;;;;;;4922296;29;20146;-64
2023/07/23 08:20:57;;;;;;;27.83;13.43;;;;;;;;;;4931402;29;20060;-64
2023/07/23 08:23:25;;;;;;;25.07;14.20;;;;;;;;;;4921012;29;20746;-64
2023/07/23 08:25:53;;;;;;;24.97;13.03;;;;;;;;;;4912222;29;20414;-64
2023/07/23 08:28:25;;;;;;;23.07;11.00;;;;;;;;;;4912917;29;20059;-64
2023/07/23 08:30:51;;;;;;;21.10;11.23;;;;;;;;;;4911599;29;20122;-64
2023/07/23 08:33:22;;;;;;;14.83;10.27;;;;;;;;;;4926420;29;20183;-64
2023/07/23 08:35:49;;;;;;;21.23;11.83;;;;;;;;;;4921786;29;20047;-64
2023/07/23 08:38:15;;;;;;;20.40;11.10;;;;;;;;;;4912051;29;20047;-64
2023/07/23 08:40:43;;;;;;;21.63;10.43;;;;;;;;;;4912550;29;20526;-64
2023/07/23 08:43:12;;;;;;;21.17;10.43;;;;;;;;;;4910964;29;20095;-64
2023/07/23 08:45:56;;;;;;;24.73;12.90;;;;;;;;;;4911271;29;20067;-64
2023/07/23 08:48:23;;;;;;;23.23;11.13;;;;;;;;;;4911119;29;20052;-63
2023/07/23 08:50:50;;;;;;;16.93;9.70;;;;;;;;;;4911983;29;20406;-64
2023/07/23 08:53:17;;;;;;;20.27;10.40;;;;;;;;;;4912921;29;20052;-64
2023/07/23 08:55:45;;;;;;;27.40;12.40;;;;;;;;;;4911771;29;20105;-64
2023/07/23 08:58:18;;;;;;;20.07;10.63;;;;;;;;;;4911213;29;20044;-64
2023/07/23 09:00:45;;;;;;;15.98;9.30;;;;;;;;;;4911538;29;20383;-63
2023/07/23 09:03:12;;;;;;;20.17;10.93;;;;;;;;;;4911664;29;20418;-63
2023/07/23 09:05:39;;;;;;;13.70;8.13;;;;;;;;;;4912460;29;20087;-64
2023/07/23 09:08:05;;;;;;;22.67;11.30;;;;;;;;;;4911359;29;20059;-64
2023/07/23 09:10:31;;;;;;;15.53;9.73;;;;;;;;;;4910561;29;20055;-64
2023/07/23 09:12:57;;;;;;;18.13;9.40;;;;;;;;;;4911930;29;20040;-63
2023/07/23 09:15:23;;;;;;;17.20;8.63;;;;;;;;;;4912398;29;20503;-64
2023/07/23 09:17:50;;;;;;;15.97;9.30;;;;;;;;;;4911565;29;20050;-64
2023/07/23 09:20:19;;;;;;;20.17;9.40;;;;;;;;;;4911908;29;20056;-64
2023/07/23 09:22:45;;;;;;;19.80;9.63;;;;;;;;;;4911215;29;20047;-64
2023/07/23 09:25:11;;;;;;;16.47;9.57;;;;;;;;;;4910592;29;20099;-64
2023/07/23 09:27:38;;;;;;;13.47;8.43;;;;;;;;;;4913644;29;20443;-64
2023/07/23 09:30:04;;;;;;;14.13;8.40;;;;;;;;;;4906176;29;20111;-64
2023/07/23 09:32:30;;;;;;;12.40;7.90;;;;;;;;;;4905028;29;20302;-64
2023/07/23 09:34:57;;;;;;;12.90;7.73;;;;;;;;;;4910986;29;20139;-64
2023/07/23 09:37:25;;;;;;;9.53;6.47;;;;;;;;;;4911843;29;20044;-64
2023/07/23 09:39:55;;;;;;;10.93;7.47;;;;;;;;;;4911580;29;20050;-64
2023/07/23 09:42:22;;;;;;;12.27;7.53;;;;;;;;;;4912360;29;20048;-63
2023/07/23 09:44:48;;;;;;;14.03;6.83;;;;;;;;;;4911637;29;20056;-64
2023/07/23 09:47:15;;;;;;;11.63;7.57;;;;;;;;;;4911911;29;20455;-64
2023/07/23 09:49:42;;;;;;;9.87;6.40;;;;;;;;;;4911693;29;20048;-63
2023/07/23 09:52:08;;;;;;;9.77;6.77;;;;;;;;;;4896987;29;21102;-64
2023/07/23 09:54:35;;;;;;;10.33;6.57;;;;;;;;;;4896349;29;20086;-64
2023/07/23 09:57:02;;;;;;;10.50;5.73;;;;;;;;;;4911106;29;20036;-64
2023/07/23 09:59:28;;;;;;;9.77;6.00;;;;;;;;;;4909881;29;20135;-64
2023/07/23 10:01:55;;;;;;;12.37;7.20;;;;;;;;;;4912318;29;20499;-64
2023/07/23 10:04:22;;;;;;;7.67;5.60;;;;;;;;;;4910706;29;20049;-64
2023/07/23 10:06:48;;;;;;;9.83;6.57;;;;;;;;;;4928011;29;20094;-64
2023/07/23 10:09:15;;;;;;;9.40;6.67;;;;;;;;;;4918832;29;20044;-64
2023/07/23 10:11:41;;;;;;;10.07;6.53;;;;;;;;;;4911308;29;20080;-64
2023/07/23 10:14:07;;;;;;;10.60;6.90;;;;;;;;;;4914606;29;20098;-64
2023/07/23 10:16:35;;;;;;;9.90;6.53;;;;;;;;;;4931020;29;20414;-63
2023/07/23 10:19:04;;;;;;;10.20;6.97;;;;;;;;;;4913015;29;20127;-65
2023/07/23 10:21:31;;;;;;;13.20;7.30;;;;;;;;;;4909934;29;20452;-64
2023/07/23 10:23:57;;;;;;;10.80;7.07;;;;;;;;;;4893940;29;20422;-64
2023/07/23 10:26:28;;;;;;;12.87;7.27;;;;;;;;;;4921714;29;20394;-64
2023/07/23 10:28:58;;;;;;;10.53;6.80;;;;;;;;;;4910606;29;20562;-64
2023/07/23 10:31:28;;;;;;;9.37;6.80;;;;;;;;;;4907974;29;20056;-64
2023/07/23 10:33:55;;;;;;;10.10;6.77;;;;;;;;;;4923627;29;20491;-64
2023/07/23 10:36:23;;;;;;;10.83;6.80;;;;;;;;;;4912222;29;20052;-64
2023/07/23 10:39:05;;;;;;;15.47;8.27;;;;;;;;;;4930556;29;20450;-64
2023/07/23 10:41:53;;;;;;;10.83;7.97;;;;;;;;;;4930063;29;20044;-64
2023/07/23 10:44:23;;;;;;;12.10;7.60;;;;;;;;;;4916635;29;20044;-64
2023/07/23 10:46:49;;;;;;;8.67;6.67;;;;;;;;;;4912418;29;20052;-64
2023/07/23 10:49:19;;;;;;;11.23;7.27;;;;;;;;;;4916396;29;20039;-64
2023/07/23 10:51:45;;;;;;;10.33;7.30;;;;;;;;;;4933368;29;20437;-63
2023/07/23 10:54:12;;;;;;;10.77;6.80;;;;;;;;;;4915452;29;20055;-63
2023/07/23 10:56:41;;;;;;;11.10;7.33;;;;;;;;;;4914282;29;20044;-64
2023/07/23 10:59:14;;;;;;;12.70;8.10;;;;;;;;;;4921106;29;20067;-63
2023/07/23 11:01:41;;;;;;;11.03;6.63;;;;;;;;;;4911935;29;20048;-63
2023/07/23 11:04:11;;;;;;;14.10;8.30;;;;;;;;;;4914409;29;20059;-64
2023/07/23 11:06:41;;;;;;;11.00;8.50;;;;;;;;;;4932285;29;20047;-64
2023/07/23 11:09:10;;;;;;;14.47;7.73;;;;;;;;;;4915991;29;20127;-64
2023/07/23 11:11:41;;;;;;;12.40;7.87;;;;;;;;;;4913658;29;20102;-64
2023/07/23 11:14:20;;;;;;;12.93;7.17;;;;;;;;;;4914116;29;20492;-64
2023/07/23 11:16:46;;;;;;;9.87;7.27;;;;;;;;;;4915128;29;20048;-64
2023/07/23 11:19:13;;;;;;;11.83;6.97;;;;;;;;;;4933719;29;20402;-65
2023/07/23 11:21:45;;;;;;;9.90;7.33;;;;;;;;;;4916566;29;20067;-64
2023/07/23 11:24:11;;;;;;;10.25;7.20;;;;;;;;;;4898848;29;20087;-64
2023/07/23 11:26:37;;;;;;;9.80;6.97;;;;;;;;;;4918865;29;20069;-64
2023/07/23 11:29:03;;;;;;;11.80;7.30;;;;;;;;;;4921349;29;20115;-64
2023/07/23 11:31:29;;;;;;;9.90;6.37;;;;;;;;;;4896886;29;20462;-64
2023/07/23 11:33:58;;;;;;;9.93;6.40;;;;;;;;;;4922618;29;20035;-64
2023/07/23 11:36:24;;;;;;;10.57;6.30;;;;;;;;;;4915423;29;20056;-64
2023/07/23 11:38:57;;;;;;;9.97;6.00;;;;;;;;;;4932707;29;20465;-64
2023/07/23 11:41:33;;;;;;;10.45;6.00;;;;;;;;;;4920847;29;20453;-64
2023/07/23 11:44:03;;;;;;;8.70;6.27;;;;;;;;;;4912017;29;20131;-64
2023/07/23 11:46:29;;;;;;;10.17;6.50;;;;;;;;;;4913249;29;20429;-64
2023/07/23 11:48:56;;;;;;;11.00;7.57;;;;;;;;;;4913371;29;20498;-64
2023/07/23 11:51:22;;;;;;;11.43;7.43;;;;;;;;;;4913052;29;20459;-63
2023/07/23 11:53:50;;;;;;;12.47;7.10;;;;;;;;;;4912991;29;20127;-63
2023/07/23 11:56:16;;;;;;;9.57;6.37;;;;;;;;;;4912968;29;20044;-63
2023/07/23 11:58:42;;;;;;;8.50;5.50;;;;;;;;;;4912714;29;20414;-64
2023/07/23 12:01:09;;;;;;;7.17;5.03;;;;;;;;;;4912634;29;20048;-63
2023/07/23 12:03:40;;;;;;;9.03;5.07;;;;;;;;;;4919169;29;20080;-63
2023/07/23 12:06:06;;;;;;;8.80;5.60;;;;;;;;;;4912070;29;20437;-63
2023/07/23 12:08:32;;;;;;;7.53;5.00;;;;;;;;;;4895820;29;20052;-64
2023/07/23 12:10:58;;;;;;;6.90;4.63;;;;;;;;;;4913009;29;20503;-64
2023/07/23 12:13:26;;;;;;;7.07;4.90;;;;;;;;;;4912779;29;20062;-64
2023/07/23 12:15:54;;;;;;;6.27;4.27;;;;;;;;;;4924151;29;20055;-64
2023/07/23 12:18:23;;;;;;;5.57;4.27;;;;;;;;;;4930242;29;20079;-64
2023/07/23 12:20:49;;;;;;;7.03;4.43;;;;;;;;;;4896318;29;20060;-64
2023/07/23 12:23:15;;;;;;;7.13;4.33;;;;;;;;;;4913693;29;20578;-64
2023/07/23 12:25:41;;;;;;;5.80;3.73;;;;;;;;;;4918528;29;21344;-64
2023/07/23 12:28:08;;;;;;;6.30;4.03;;;;;;;;;;4911953;29;20550;-64
2023/07/23 12:30:34;;;;;;;6.87;4.83;;;;;;;;;;4912894;29;20063;-65
2023/07/23 12:33:00;;;;;;;5.30;4.13;;;;;;;;;;4912221;29;20044;-65
2023/07/23 12:35:26;;;;;;;5.63;4.70;;;;;;;;;;4911932;29;20050;-65
2023/07/23 12:37:52;;;;;;;7.33;4.07;;;;;;;;;;4910853;29;20050;-65
2023/07/23 12:40:18;;;;;;;5.30;4.30;;;;;;;;;;4921835;29;20428;-65
2023/07/23 12:42:44;;;;;;;6.50;4.43;;;;;;;;;;4926865;29;20044;-65
2023/07/23 12:45:10;;;;;;;7.00;4.70;;;;;;;;;;4912669;29;20070;-65
2023/07/23 12:47:36;;;;;;;4.83;3.90;;;;;;;;;;4913083;29;20088;-65
2023/07/23 12:50:03;;;;;;;6.03;3.80;;;;;;;;;;4923222;29;20040;-65
2023/07/23 12:52:29;;;;;;;6.10;4.80;;;;;;;;;;4924250;29;20079;-65
2023/07/23 12:54:55;;;;;;;5.07;4.57;;;;;;;;;;4911217;29;20083;-65
2023/07/23 12:57:22;;;;;;;6.77;5.27;;;;;;;;;;4912524;29;20370;-65
2023/07/23 12:59:49;;;;;;;6.13;5.53;;;;;;;;;;4895080;29;20095;-65
2023/07/23 13:02:15;;;;;;;6.60;5.90;;;;;;;;;;4914122;29;20807;-65
2023/07/23 13:04:44;;;;;;;6.33;5.43;;;;;;;;;;4911853;29;20494;-65
2023/07/23 13:07:13;;;;;;;7.00;6.23;;;;;;;;;;4919361;29;20562;-64
2023/07/23 13:09:40;;;;;;;7.20;6.27;;;;;;;;;;4926753;29;20059;-64
2023/07/23 13:12:06;;;;;;;7.07;6.13;;;;;;;;;;4914383;29;20095;-64
2023/07/23 13:14:32;;;;;;;7.53;6.70;;;;;;;;;;4912935;29;20062;-64
2023/07/23 13:16:58;;;;;;;9.00;5.97;;;;;;;;;;4911084;29;20134;-64
2023/07/23 13:19:24;;;;;;;8.17;6.47;;;;;;;;;;4909866;29;20091;-64
2023/07/23 13:21:50;;;;;;;7.37;6.47;;;;;;;;;;4911343;29;20513;-63
2023/07/23 13:24:16;;;;;;;8.50;6.10;;;;;;;;;;4910032;29;20095;-63
2023/07/23 13:26:42;;;;;;;7.77;6.13;;;;;;;;;;4911293;29;20483;-63
2023/07/23 13:29:09;;;;;;;8.00;6.00;;;;;;;;;;4910875;29;20127;-60
2023/07/23 13:31:35;;;;;;;6.70;6.10;;;;;;;;;;4911992;29;20046;-60
2023/07/23 13:34:01;;;;;;;6.60;6.00;;;;;;;;;;4911461;29;20056;-61
2023/07/23 13:36:27;;;;;;;6.60;5.97;;;;;;;;;;4922313;29;20059;-60
2023/07/23 13:38:53;;;;;;;6.90;6.20;;;;;;;;;;4929104;29;20035;-60
2023/07/23 13:41:19;;;;;;;7.60;6.63;;;;;;;;;;4913156;29;20048;-60
2023/07/23 13:43:45;;;;;;;9.30;6.37;;;;;;;;;;4930631;29;20494;-60
2023/07/23 13:46:11;;;;;;;8.13;7.33;;;;;;;;;;4914937;29;20107;-60
2023/07/23 13:48:37;;;;;;;9.67;7.67;;;;;;;;;;4911377;29;20474;-61
2023/07/23 13:51:03;;;;;;;9.03;6.87;;;;;;;;;;4910414;29;20190;-60
2023/07/23 13:53:29;;;;;;;7.77;6.73;;;;;;;;;;4911973;29;20052;-59
2023/07/23 13:55:55;;;;;;;7.23;5.87;;;;;;;;;;4915361;29;20052;-59
2023/07/23 13:58:21;;;;;;;8.97;6.20;;;;;;;;;;4912164;29;20088;-60
2023/07/23 14:00:47;;;;;;;6.87;5.97;;;;;;;;;;4914126;29;20517;-60
2023/07/23 14:03:13;;;;;;;5.87;5.23;;;;;;;;;;4918846;29;20180;-59
2023/07/23 14:05:39;;;;;;;8.03;6.40;;;;;;;;;;4911913;29;20056;-60
2023/07/23 14:08:05;;;;;;;7.60;6.03;;;;;;;;;;4910992;29;20519;-59
2023/07/23 14:10:31;;;;;;;7.40;5.43;;;;;;;;;;4911214;29;20538;-59
2023/07/23 14:12:57;;;;;;;12.57;6.07;;;;;;;;;;4910155;29;20052;-60
2023/07/23 14:15:23;;;;;;;9.03;6.13;;;;;;;;;;4912780;29;20048;-60
2023/07/23 14:17:49;;;;;;;7.83;6.13;;;;;;;;;;4914971;29;20066;-60
2023/07/23 14:20:15;;;;;;;7.33;6.03;;;;;;;;;;4916641;29;20499;-60
2023/07/23 14:22:41;;;;;;;7.10;6.17;;;;;;;;;;4925027;29;20051;-60